sensor_id;sensor_type;location;lat;lon;timestamp;P1;durP1;ratioP1;P2;durP2;ratioP2
1507;SDS011;745;48.586;10.032;2022-09-24T00:00:52;8.50;;;7.70;;
1507;SDS011;745;48.586;10.032;2022-09-24T00:05:22;8.67;;;7.80;;
1507;SDS011;745;48.586;10.032;2022-09-24T00:09:53;8.90;;;8.00;;
1507;SDS011;745;48.586;10.032;2022-09-24T00:14:24;9.77;;;8.77;;
1507;SDS011;745;48.586;10.032;2022-09-24T00:18:57;8.53;;;7.73;;
1507;SDS011;745;48.586;10.032;2022-09-24T00:23:27;8.00;;;7.30;;
1507;SDS011;745;48.586;10.032;2022-09-24T00:27:58;7.83;;;7.13;;
1507;SDS011;745;48.586;10.032;2022-09-24T00:32:28;7.93;;;7.13;;
1507;SDS011;745;48.586;10.032;2022-09-24T00:36:59;8.10;;;7.30;;
1507;SDS011;745;48.586;10.032;2022-09-24T00:41:30;9.93;;;8.93;;
1507;SDS011;745;48.586;10.032;2022-09-24T00:46:13;8.30;;;7.50;;
1507;SDS011;745;48.586;10.032;2022-09-24T00:50:50;8.67;;;7.87;;
1507;SDS011;745;48.586;10.032;2022-09-24T00:55:21;10.90;;;9.80;;
1507;SDS011;745;48.586;10.032;2022-09-24T00:59:53;11.50;;;10.40;;
1507;SDS011;745;48.586;10.032;2022-09-24T01:04:26;13.30;;;11.90;;
1507;SDS011;745;48.586;10.032;2022-09-24T01:08:58;13.83;;;12.33;;
1507;SDS011;745;48.586;10.032;2022-09-24T01:18:19;12.03;;;10.83;;
1507;SDS011;745;48.586;10.032;2022-09-24T01:32:59;8.10;;;7.33;;
1507;SDS011;745;48.586;10.032;2022-09-24T01:37:32;8.00;;;7.30;;
1507;SDS011;745;48.586;10.032;2022-09-24T01:42:04;9.37;;;8.47;;
1507;SDS011;745;48.586;10.032;2022-09-24T01:46:40;14.10;;;12.60;;
1507;SDS011;745;48.586;10.032;2022-09-24T01:55:56;12.30;;;11.10;;
1507;SDS011;745;48.586;10.032;2022-09-24T02:00:29;13.23;;;11.57;;
1507;SDS011;745;48.586;10.032;2022-09-24T02:05:02;12.73;;;11.43;;
1507;SDS011;745;48.586;10.032;2022-09-24T02:09:46;15.50;;;13.27;;
1507;SDS011;745;48.586;10.032;2022-09-24T02:14:19;12.40;;;11.13;;
1507;SDS011;745;48.586;10.032;2022-09-24T02:18:50;12.43;;;10.77;;
1507;SDS011;745;48.586;10.032;2022-09-24T02:23:21;11.13;;;9.90;;
1507;SDS011;745;48.586;10.032;2022-09-24T02:27:52;10.67;;;9.67;;
1507;SDS011;745;48.586;10.032;2022-09-24T02:32:24;12.90;;;11.53;;
1507;SDS011;745;48.586;10.032;2022-09-24T02:36:58;12.67;;;10.90;;
1507;SDS011;745;48.586;10.032;2022-09-24T02:41:34;13.20;;;10.97;;
1507;SDS011;745;48.586;10.032;2022-09-24T02:46:06;12.87;;;11.57;;
1507;SDS011;745;48.586;10.032;2022-09-24T02:50:39;13.30;;;12.00;;
1507;SDS011;745;48.586;10.032;2022-09-24T02:55:10;13.53;;;12.00;;
1507;SDS011;745;48.586;10.032;2022-09-24T02:59:41;14.30;;;12.80;;
1507;SDS011;745;48.586;10.032;2022-09-24T03:04:12;15.70;;;13.60;;
1507;SDS011;745;48.586;10.032;2022-09-24T03:08:44;13.80;;;12.37;;
1507;SDS011;745;48.586;10.032;2022-09-24T03:13:16;15.10;;;13.00;;
1507;SDS011;745;48.586;10.032;2022-09-24T03:17:47;14.47;;;12.93;;
1507;SDS011;745;48.586;10.032;2022-09-24T03:22:17;14.07;;;12.47;;
1507;SDS011;745;48.586;10.032;2022-09-24T03:26:48;15.20;;;12.87;;
1507;SDS011;745;48.586;10.032;2022-09-24T03:31:19;17.70;;;14.83;;
1507;SDS011;745;48.586;10.032;2022-09-24T03:35:56;18.87;;;15.30;;
1507;SDS011;745;48.586;10.032;2022-09-24T03:40:32;14.47;;;12.93;;
1507;SDS011;745;48.586;10.032;2022-09-24T03:45:03;15.23;;;12.40;;
1507;SDS011;745;48.586;10.032;2022-09-24T03:49:34;13.80;;;12.40;;
1507;SDS011;745;48.586;10.032;2022-09-24T03:54:05;13.67;;;12.17;;
1507;SDS011;745;48.586;10.032;2022-09-24T03:58:35;12.27;;;10.97;;
1507;SDS011;745;48.586;10.032;2022-09-24T04:03:07;10.40;;;8.93;;
1507;SDS011;745;48.586;10.032;2022-09-24T04:07:38;8.43;;;7.60;;
1507;SDS011;745;48.586;10.032;2022-09-24T04:12:09;6.40;;;5.80;;
1507;SDS011;745;48.586;10.032;2022-09-24T04:16:39;9.57;;;8.57;;
1507;SDS011;745;48.586;10.032;2022-09-24T04:21:10;7.77;;;6.97;;
1507;SDS011;745;48.586;10.032;2022-09-24T04:25:41;11.40;;;10.20;;
1507;SDS011;745;48.586;10.032;2022-09-24T04:30:12;11.80;;;10.60;;
1507;SDS011;745;48.586;10.032;2022-09-24T04:34:43;14.30;;;12.77;;
1507;SDS011;745;48.586;10.032;2022-09-24T04:39:14;14.53;;;13.03;;
1507;SDS011;745;48.586;10.032;2022-09-24T04:43:44;15.67;;;13.93;;
1507;SDS011;745;48.586;10.032;2022-09-24T04:48:16;20.73;;;17.10;;
1507;SDS011;745;48.586;10.032;2022-09-24T04:52:46;13.33;;;11.90;;
1507;SDS011;745;48.586;10.032;2022-09-24T04:57:18;10.80;;;9.60;;
1507;SDS011;745;48.586;10.032;2022-09-24T05:01:48;8.77;;;7.87;;
1507;SDS011;745;48.586;10.032;2022-09-24T05:06:19;7.23;;;6.53;;
1507;SDS011;745;48.586;10.032;2022-09-24T05:10:49;7.80;;;7.00;;
1507;SDS011;745;48.586;10.032;2022-09-24T05:15:22;14.17;;;12.80;;
1507;SDS011;745;48.586;10.032;2022-09-24T05:19:54;13.57;;;12.37;;
1507;SDS011;745;48.586;10.032;2022-09-24T05:24:26;11.80;;;10.70;;
1507;SDS011;745;48.586;10.032;2022-09-24T05:28:57;9.60;;;8.80;;
1507;SDS011;745;48.586;10.032;2022-09-24T05:33:27;9.17;;;8.40;;
1507;SDS011;745;48.586;10.032;2022-09-24T05:37:59;9.43;;;8.53;;
1507;SDS011;745;48.586;10.032;2022-09-24T05:42:29;6.87;;;6.27;;
1507;SDS011;745;48.586;10.032;2022-09-24T05:47:00;7.03;;;6.40;;
1507;SDS011;745;48.586;10.032;2022-09-24T05:51:31;10.23;;;9.00;;
1507;SDS011;745;48.586;10.032;2022-09-24T05:56:01;9.53;;;8.53;;
1507;SDS011;745;48.586;10.032;2022-09-24T06:00:32;9.67;;;8.77;;
1507;SDS011;745;48.586;10.032;2022-09-24T06:05:04;9.23;;;8.23;;
1507;SDS011;745;48.586;10.032;2022-09-24T06:09:35;7.90;;;7.10;;
1507;SDS011;745;48.586;10.032;2022-09-24T06:14:06;9.47;;;7.20;;
1507;SDS011;745;48.586;10.032;2022-09-24T06:18:39;6.87;;;6.17;;
1507;SDS011;745;48.586;10.032;2022-09-24T06:23:10;6.00;;;5.50;;
1507;SDS011;745;48.586;10.032;2022-09-24T06:27:41;6.50;;;5.37;;
1507;SDS011;745;48.586;10.032;2022-09-24T06:32:12;5.80;;;5.20;;
1507;SDS011;745;48.586;10.032;2022-09-24T06:36:42;5.20;;;4.80;;
1507;SDS011;745;48.586;10.032;2022-09-24T06:41:13;5.73;;;5.27;;
1507;SDS011;745;48.586;10.032;2022-09-24T06:45:44;5.40;;;5.00;;
1507;SDS011;745;48.586;10.032;2022-09-24T06:50:15;4.23;;;3.87;;
1507;SDS011;745;48.586;10.032;2022-09-24T06:54:46;6.17;;;5.60;;
1507;SDS011;745;48.586;10.032;2022-09-24T06:59:17;5.77;;;5.27;;
1507;SDS011;745;48.586;10.032;2022-09-24T07:03:47;5.33;;;4.83;;
1507;SDS011;745;48.586;10.032;2022-09-24T07:08:18;7.07;;;6.37;;
1507;SDS011;745;48.586;10.032;2022-09-24T07:12:49;7.97;;;6.63;;
1507;SDS011;745;48.586;10.032;2022-09-24T07:17:20;7.70;;;6.80;;
1507;SDS011;745;48.586;10.032;2022-09-24T07:21:50;7.63;;;6.80;;
1507;SDS011;745;48.586;10.032;2022-09-24T07:26:21;6.20;;;5.70;;
1507;SDS011;745;48.586;10.032;2022-09-24T07:30:58;6.80;;;6.20;;
1507;SDS011;745;48.586;10.032;2022-09-24T07:35:29;8.43;;;7.70;;
1507;SDS011;745;48.586;10.032;2022-09-24T07:40:00;9.00;;;8.20;;
1507;SDS011;745;48.586;10.032;2022-09-24T07:44:31;7.77;;;7.07;;
1507;SDS011;745;48.586;10.032;2022-09-24T07:49:03;6.73;;;6.10;;
1507;SDS011;745;48.586;10.032;2022-09-24T07:53:33;6.87;;;6.27;;
1507;SDS011;745;48.586;10.032;2022-09-24T07:58:04;10.50;;;9.43;;
1507;SDS011;745;48.586;10.032;2022-09-24T08:02:35;9.60;;;7.93;;
1507;SDS011;745;48.586;10.032;2022-09-24T08:07:06;10.00;;;9.07;;
1507;SDS011;745;48.586;10.032;2022-09-24T08:11:39;16.00;;;11.70;;
1507;SDS011;745;48.586;10.032;2022-09-24T08:16:10;13.73;;;12.33;;
1507;SDS011;745;48.586;10.032;2022-09-24T08:20:42;10.23;;;9.20;;
1507;SDS011;745;48.586;10.032;2022-09-24T08:25:13;10.27;;;9.27;;
1507;SDS011;745;48.586;10.032;2022-09-24T08:29:46;8.97;;;8.17;;
1507;SDS011;745;48.586;10.032;2022-09-24T08:34:18;8.77;;;7.97;;
1507;SDS011;745;48.586;10.032;2022-09-24T08:38:51;7.93;;;7.13;;
1507;SDS011;745;48.586;10.032;2022-09-24T08:43:34;11.00;;;7.70;;
1507;SDS011;745;48.586;10.032;2022-09-24T08:48:16;7.83;;;7.13;;
1507;SDS011;745;48.586;10.032;2022-09-24T08:53:25;6.83;;;6.23;;
1507;SDS011;745;48.586;10.032;2022-09-24T08:57:57;7.40;;;5.80;;
1507;SDS011;745;48.586;10.032;2022-09-24T09:03:16;7.10;;;6.40;;
1507;SDS011;745;48.586;10.032;2022-09-24T09:12:35;6.00;;;5.47;;
1507;SDS011;745;48.586;10.032;2022-09-24T09:17:14;4.40;;;4.00;;
1507;SDS011;745;48.586;10.032;2022-09-24T09:21:51;5.10;;;4.60;;
1507;SDS011;745;48.586;10.032;2022-09-24T09:26:26;4.40;;;4.00;;
1507;SDS011;745;48.586;10.032;2022-09-24T09:31:13;3.90;;;3.60;;
1507;SDS011;745;48.586;10.032;2022-09-24T09:35:57;4.40;;;4.00;;
1507;SDS011;745;48.586;10.032;2022-09-24T09:40:35;4.13;;;3.80;;
1507;SDS011;745;48.586;10.032;2022-09-24T09:50:05;4.23;;;3.90;;
1507;SDS011;745;48.586;10.032;2022-09-24T09:54:41;4.37;;;3.60;;
1507;SDS011;745;48.586;10.032;2022-09-24T10:08:20;4.27;;;3.87;;
1507;SDS011;745;48.586;10.032;2022-09-24T10:12:52;4.13;;;3.83;;
1507;SDS011;745;48.586;10.032;2022-09-24T10:17:38;3.53;;;3.23;;
1507;SDS011;745;48.586;10.032;2022-09-24T10:22:20;3.57;;;3.27;;
1507;SDS011;745;48.586;10.032;2022-09-24T10:26:53;3.40;;;3.20;;
1507;SDS011;745;48.586;10.032;2022-09-24T10:31:24;3.60;;;3.17;;
1507;SDS011;745;48.586;10.032;2022-09-24T10:36:05;3.60;;;3.30;;
1507;SDS011;745;48.586;10.032;2022-09-24T10:40:37;3.90;;;3.60;;
1507;SDS011;745;48.586;10.032;2022-09-24T10:45:09;3.70;;;3.40;;
1507;SDS011;745;48.586;10.032;2022-09-24T10:55:07;4.40;;;4.00;;
1507;SDS011;745;48.586;10.032;2022-09-24T11:09:34;4.40;;;4.00;;
1507;SDS011;745;48.586;10.032;2022-09-24T11:19:06;3.90;;;3.60;;
1507;SDS011;745;48.586;10.032;2022-09-24T11:33:31;4.20;;;3.80;;
1507;SDS011;745;48.586;10.032;2022-09-24T11:38:22;5.63;;;5.13;;
1507;SDS011;745;48.586;10.032;2022-09-24T11:43:36;6.00;;;5.50;;
1507;SDS011;745;48.586;10.032;2022-09-24T11:58:05;8.90;;;8.20;;
1507;SDS011;745;48.586;10.032;2022-09-24T12:12:36;8.83;;;7.40;;
1507;SDS011;745;48.586;10.032;2022-09-24T12:17:09;10.03;;;6.30;;
1507;SDS011;745;48.586;10.032;2022-09-24T12:21:46;6.03;;;5.43;;
1507;SDS011;745;48.586;10.032;2022-09-24T12:26:19;5.67;;;5.07;;
1507;SDS011;745;48.586;10.032;2022-09-24T12:30:52;5.07;;;4.57;;
1507;SDS011;745;48.586;10.032;2022-09-24T12:35:49;4.37;;;3.97;;
1507;SDS011;745;48.586;10.032;2022-09-24T12:45:04;5.53;;;5.03;;
1507;SDS011;745;48.586;10.032;2022-09-24T12:49:46;4.20;;;3.80;;
1507;SDS011;745;48.586;10.032;2022-09-24T12:54:34;4.57;;;4.17;;
1507;SDS011;745;48.586;10.032;2022-09-24T12:59:21;4.50;;;4.10;;
1507;SDS011;745;48.586;10.032;2022-09-24T13:08:44;4.50;;;4.10;;
1507;SDS011;745;48.586;10.032;2022-09-24T13:13:22;4.43;;;4.03;;
1507;SDS011;745;48.586;10.032;2022-09-24T13:22:37;4.80;;;4.40;;
1507;SDS011;745;48.586;10.032;2022-09-24T13:27:33;4.77;;;4.30;;
1507;SDS011;745;48.586;10.032;2022-09-24T13:32:07;5.83;;;5.33;;
1507;SDS011;745;48.586;10.032;2022-09-24T13:37:04;7.40;;;6.70;;
1507;SDS011;745;48.586;10.032;2022-09-24T13:41:58;6.73;;;6.13;;
1507;SDS011;745;48.586;10.032;2022-09-24T13:46:45;6.97;;;6.37;;
1507;SDS011;745;48.586;10.032;2022-09-24T13:51:17;6.70;;;6.20;;
1507;SDS011;745;48.586;10.032;2022-09-24T13:55:52;5.90;;;5.40;;
1507;SDS011;745;48.586;10.032;2022-09-24T14:00:25;8.10;;;7.30;;
1507;SDS011;745;48.586;10.032;2022-09-24T14:04:57;9.10;;;8.30;;
1507;SDS011;745;48.586;10.032;2022-09-24T14:09:33;8.97;;;8.17;;
1507;SDS011;745;48.586;10.032;2022-09-24T14:14:09;7.37;;;6.77;;
1507;SDS011;745;48.586;10.032;2022-09-24T14:18:40;6.70;;;6.10;;
1507;SDS011;745;48.586;10.032;2022-09-24T14:23:14;7.03;;;6.43;;
1507;SDS011;745;48.586;10.032;2022-09-24T14:27:49;6.30;;;5.80;;
1507;SDS011;745;48.586;10.032;2022-09-24T14:36:52;6.13;;;5.63;;
1507;SDS011;745;48.586;10.032;2022-09-24T14:41:27;5.07;;;4.67;;
1507;SDS011;745;48.586;10.032;2022-09-24T14:46:03;5.00;;;4.60;;
1507;SDS011;745;48.586;10.032;2022-09-24T14:50:42;5.00;;;4.60;;
1507;SDS011;745;48.586;10.032;2022-09-24T14:55:14;5.40;;;5.00;;
1507;SDS011;745;48.586;10.032;2022-09-24T14:59:45;4.53;;;4.23;;
1507;SDS011;745;48.586;10.032;2022-09-24T15:04:16;5.57;;;4.07;;
1507;SDS011;745;48.586;10.032;2022-09-24T15:09:03;4.57;;;4.17;;
1507;SDS011;745;48.586;10.032;2022-09-24T15:13:36;4.60;;;4.20;;
1507;SDS011;745;48.586;10.032;2022-09-24T15:18:10;5.37;;;4.97;;
1507;SDS011;745;48.586;10.032;2022-09-24T15:22:41;5.73;;;5.23;;
1507;SDS011;745;48.586;10.032;2022-09-24T15:27:17;4.70;;;4.30;;
1507;SDS011;745;48.586;10.032;2022-09-24T15:31:53;4.60;;;4.30;;
1507;SDS011;745;48.586;10.032;2022-09-24T15:36:26;4.47;;;4.07;;
1507;SDS011;745;48.586;10.032;2022-09-24T15:40:56;8.57;;;7.67;;
1507;SDS011;745;48.586;10.032;2022-09-24T15:45:28;7.00;;;6.40;;
1507;SDS011;745;48.586;10.032;2022-09-24T15:49:59;6.90;;;6.20;;
1507;SDS011;745;48.586;10.032;2022-09-24T15:54:30;5.83;;;5.33;;
1507;SDS011;745;48.586;10.032;2022-09-24T15:59:04;6.50;;;5.90;;
1507;SDS011;745;48.586;10.032;2022-09-24T16:03:39;5.80;;;5.30;;
1507;SDS011;745;48.586;10.032;2022-09-24T16:08:10;6.77;;;6.17;;
1507;SDS011;745;48.586;10.032;2022-09-24T16:12:41;8.37;;;7.57;;
1507;SDS011;745;48.586;10.032;2022-09-24T16:17:12;7.87;;;7.17;;
1507;SDS011;745;48.586;10.032;2022-09-24T16:21:43;6.37;;;5.87;;
1507;SDS011;745;48.586;10.032;2022-09-24T16:26:13;6.97;;;6.43;;
1507;SDS011;745;48.586;10.032;2022-09-24T16:30:46;5.27;;;4.87;;
1507;SDS011;745;48.586;10.032;2022-09-24T16:35:18;5.60;;;5.10;;
1507;SDS011;745;48.586;10.032;2022-09-24T16:39:48;4.37;;;4.07;;
1507;SDS011;745;48.586;10.032;2022-09-24T16:44:20;4.50;;;4.10;;
1507;SDS011;745;48.586;10.032;2022-09-24T16:48:51;4.50;;;4.10;;
1507;SDS011;745;48.586;10.032;2022-09-24T16:53:22;5.00;;;4.60;;
1507;SDS011;745;48.586;10.032;2022-09-24T16:57:54;6.03;;;5.50;;
1507;SDS011;745;48.586;10.032;2022-09-24T17:02:25;7.17;;;6.50;;
1507;SDS011;745;48.586;10.032;2022-09-24T17:06:56;7.03;;;6.40;;
1507;SDS011;745;48.586;10.032;2022-09-24T17:11:27;7.33;;;6.63;;
1507;SDS011;745;48.586;10.032;2022-09-24T17:15:59;7.60;;;6.90;;
1507;SDS011;745;48.586;10.032;2022-09-24T17:20:31;6.50;;;5.90;;
1507;SDS011;745;48.586;10.032;2022-09-24T17:25:02;6.50;;;6.00;;
1507;SDS011;745;48.586;10.032;2022-09-24T17:29:37;6.87;;;6.17;;
1507;SDS011;745;48.586;10.032;2022-09-24T17:34:09;8.20;;;7.40;;
1507;SDS011;745;48.586;10.032;2022-09-24T17:38:41;7.97;;;7.13;;
1507;SDS011;745;48.586;10.032;2022-09-24T17:43:12;8.30;;;7.50;;
1507;SDS011;745;48.586;10.032;2022-09-24T17:47:43;8.20;;;7.40;;
1507;SDS011;745;48.586;10.032;2022-09-24T17:52:25;10.33;;;8.90;;
1507;SDS011;745;48.586;10.032;2022-09-24T17:56:57;10.17;;;9.27;;
1507;SDS011;745;48.586;10.032;2022-09-24T18:01:30;10.93;;;9.93;;
1507;SDS011;745;48.586;10.032;2022-09-24T18:06:08;11.53;;;10.43;;
1507;SDS011;745;48.586;10.032;2022-09-24T18:10:41;9.50;;;8.60;;
1507;SDS011;745;48.586;10.032;2022-09-24T18:15:12;9.43;;;8.53;;
1507;SDS011;745;48.586;10.032;2022-09-24T18:19:50;8.77;;;7.97;;
1507;SDS011;745;48.586;10.032;2022-09-24T18:24:20;7.10;;;6.50;;
1507;SDS011;745;48.586;10.032;2022-09-24T18:28:52;8.90;;;8.10;;
1507;SDS011;745;48.586;10.032;2022-09-24T18:33:28;7.40;;;6.77;;
1507;SDS011;745;48.586;10.032;2022-09-24T18:37:58;8.43;;;7.63;;
1507;SDS011;745;48.586;10.032;2022-09-24T18:42:29;10.43;;;9.43;;
1507;SDS011;745;48.586;10.032;2022-09-24T18:47:00;11.07;;;10.03;;
1507;SDS011;745;48.586;10.032;2022-09-24T18:51:31;9.60;;;8.70;;
1507;SDS011;745;48.586;10.032;2022-09-24T18:56:04;8.80;;;8.00;;
1507;SDS011;745;48.586;10.032;2022-09-24T19:00:37;12.00;;;10.80;;
1507;SDS011;745;48.586;10.032;2022-09-24T19:05:20;15.40;;;13.80;;
1507;SDS011;745;48.586;10.032;2022-09-24T19:09:51;15.00;;;13.27;;
1507;SDS011;745;48.586;10.032;2022-09-24T19:14:22;15.80;;;14.20;;
1507;SDS011;745;48.586;10.032;2022-09-24T19:18:54;16.37;;;14.40;;
1507;SDS011;745;48.586;10.032;2022-09-24T19:23:24;14.93;;;13.43;;
1507;SDS011;745;48.586;10.032;2022-09-24T19:27:55;14.80;;;13.20;;
1507;SDS011;745;48.586;10.032;2022-09-24T19:32:26;14.17;;;12.40;;
1507;SDS011;745;48.586;10.032;2022-09-24T19:36:57;15.53;;;13.93;;
1507;SDS011;745;48.586;10.032;2022-09-24T19:41:29;16.53;;;14.83;;
1507;SDS011;745;48.586;10.032;2022-09-24T19:46:01;12.93;;;11.57;;
1507;SDS011;745;48.586;10.032;2022-09-24T19:50:36;12.63;;;11.33;;
1507;SDS011;745;48.586;10.032;2022-09-24T19:55:07;14.90;;;12.90;;
1507;SDS011;745;48.586;10.032;2022-09-24T19:59:41;13.53;;;12.10;;
1507;SDS011;745;48.586;10.032;2022-09-24T20:04:12;12.60;;;11.20;;
1507;SDS011;745;48.586;10.032;2022-09-24T20:08:44;14.80;;;13.00;;
1507;SDS011;745;48.586;10.032;2022-09-24T20:13:15;13.60;;;12.20;;
1507;SDS011;745;48.586;10.032;2022-09-24T20:17:47;17.40;;;14.90;;
1507;SDS011;745;48.586;10.032;2022-09-24T20:22:18;17.07;;;14.47;;
1507;SDS011;745;48.586;10.032;2022-09-24T20:26:48;13.73;;;11.93;;
1507;SDS011;745;48.586;10.032;2022-09-24T20:31:39;12.63;;;11.33;;
1507;SDS011;745;48.586;10.032;2022-09-24T20:36:11;16.17;;;14.53;;
1507;SDS011;745;48.586;10.032;2022-09-24T20:40:42;14.67;;;13.10;;
1507;SDS011;745;48.586;10.032;2022-09-24T20:45:14;18.13;;;15.20;;
1507;SDS011;745;48.586;10.032;2022-09-24T20:49:46;16.63;;;13.97;;
1507;SDS011;745;48.586;10.032;2022-09-24T20:54:17;13.73;;;11.87;;
1507;SDS011;745;48.586;10.032;2022-09-24T20:58:48;13.73;;;11.30;;
1507;SDS011;745;48.586;10.032;2022-09-24T21:03:20;12.57;;;11.13;;
1507;SDS011;745;48.586;10.032;2022-09-24T21:07:51;13.60;;;12.20;;
1507;SDS011;745;48.586;10.032;2022-09-24T21:12:22;15.00;;;12.93;;
1507;SDS011;745;48.586;10.032;2022-09-24T21:16:54;12.67;;;10.80;;
1507;SDS011;745;48.586;10.032;2022-09-24T21:21:27;14.03;;;12.60;;
1507;SDS011;745;48.586;10.032;2022-09-24T21:26:13;13.40;;;12.00;;
1507;SDS011;745;48.586;10.032;2022-09-24T21:30:55;17.17;;;14.00;;
1507;SDS011;745;48.586;10.032;2022-09-24T21:35:28;17.10;;;14.80;;
1507;SDS011;745;48.586;10.032;2022-09-24T21:40:00;19.53;;;15.30;;
1507;SDS011;745;48.586;10.032;2022-09-24T21:44:31;15.33;;;13.73;;
1507;SDS011;745;48.586;10.032;2022-09-24T21:49:02;16.53;;;13.10;;
1507;SDS011;745;48.586;10.032;2022-09-24T21:53:33;11.90;;;10.60;;
1507;SDS011;745;48.586;10.032;2022-09-24T21:58:04;14.00;;;11.67;;
1507;SDS011;745;48.586;10.032;2022-09-24T22:02:35;11.40;;;10.20;;
1507;SDS011;745;48.586;10.032;2022-09-24T22:07:06;11.70;;;9.97;;
1507;SDS011;745;48.586;10.032;2022-09-24T22:11:37;11.67;;;10.10;;
1507;SDS011;745;48.586;10.032;2022-09-24T22:16:09;11.30;;;10.10;;
1507;SDS011;745;48.586;10.032;2022-09-24T22:20:42;11.77;;;10.57;;
1507;SDS011;745;48.586;10.032;2022-09-24T22:25:13;10.23;;;9.03;;
1507;SDS011;745;48.586;10.032;2022-09-24T22:29:44;15.03;;;12.57;;
1507;SDS011;745;48.586;10.032;2022-09-24T22:34:15;15.43;;;12.00;;
1507;SDS011;745;48.586;10.032;2022-09-24T22:39:04;14.33;;;11.10;;
1507;SDS011;745;48.586;10.032;2022-09-24T22:43:36;11.23;;;9.63;;
1507;SDS011;745;48.586;10.032;2022-09-24T22:48:08;11.87;;;9.40;;
1507;SDS011;745;48.586;10.032;2022-09-24T22:52:39;12.20;;;10.90;;
1507;SDS011;745;48.586;10.032;2022-09-24T22:57:10;13.07;;;10.83;;
1507;SDS011;745;48.586;10.032;2022-09-24T23:01:41;12.20;;;10.90;;
1507;SDS011;745;48.586;10.032;2022-09-24T23:06:13;12.27;;;10.57;;
1507;SDS011;745;48.586;10.032;2022-09-24T23:10:44;12.80;;;11.50;;
1507;SDS011;745;48.586;10.032;2022-09-24T23:15:15;12.73;;;11.10;;
1507;SDS011;745;48.586;10.032;2022-09-24T23:19:47;11.70;;;10.50;;
1507;SDS011;745;48.586;10.032;2022-09-24T23:24:18;13.90;;;12.50;;
1507;SDS011;745;48.586;10.032;2022-09-24T23:28:50;13.90;;;12.40;;
1507;SDS011;745;48.586;10.032;2022-09-24T23:33:21;11.60;;;10.40;;
1507;SDS011;745;48.586;10.032;2022-09-24T23:37:52;13.70;;;12.27;;
1507;SDS011;745;48.586;10.032;2022-09-24T23:42:22;14.30;;;12.57;;
1507;SDS011;745;48.586;10.032;2022-09-24T23:46:53;10.80;;;9.70;;
1507;SDS011;745;48.586;10.032;2022-09-24T23:51:25;12.83;;;11.37;;
1507;SDS011;745;48.586;10.032;2022-09-24T23:55:56;13.30;;;11.90;;
